Time;durP1;ratioP1;P1;durP2;ratioP2;P2;SDS_P1;SDS_P2;PMS_P1;PMS_P2;Temp;Humidity;BMP_temperature;BMP_pressure;BME280_temperature;BME280_humidity;BME280_pressure;Samples;Min_cycle;Max_cycle;Signal;HPM_P1;HPM_P2
2022/12/25 00:01:30;;;;;;;13.57;8.18;;;;;;;-144.32;100.00;68061.97;10343636;28;20783;-78
2022/12/25 00:06:32;;;;;;;15.00;8.00;;;;;;;-144.32;100.00;68061.97;10354450;28;20664;-78
2022/12/25 00:11:33;;;;;;;15.48;8.15;;;;;;;-144.32;100.00;68061.97;10345345;28;20088;-78
2022/12/25 00:16:33;;;;;;;12.90;8.00;;;;;;;-144.32;100.00;68061.97;10352957;28;20125;-78
2022/12/25 00:21:34;;;;;;;11.73;7.38;;;;;;;-144.32;100.00;68061.97;10330440;28;20065;-77
2022/12/25 00:26:34;;;;;;;12.82;8.07;;;;;;;-144.32;100.00;68061.97;10340958;28;20126;-77
2022/12/25 00:31:35;;;;;;;13.75;6.75;;;;;;;-144.32;100.00;68061.97;10342877;28;20305;-78
2022/12/25 00:36:37;;;;;;;14.90;7.88;;;;;;;-144.32;100.00;68061.97;10354806;28;20046;-76
2022/12/25 00:46:56;;;;;;;11.63;8.07;;;;;;;-144.32;100.00;68061.97;10339575;28;20050;-77
2022/12/25 00:51:57;;;;;;;16.40;8.70;;;;;;;-144.32;100.00;68061.97;10339137;28;20042;-76
2022/12/25 00:56:57;;;;;;;9.43;7.63;;;;;;;-144.32;100.00;68061.97;10350769;28;20049;-77
2022/12/25 01:02:22;;;;;;;13.32;7.75;;;;;;;-144.32;100.00;68061.97;10347327;28;20049;-76
2022/12/25 01:07:23;;;;;;;12.32;6.68;;;;;;;-144.32;100.00;68061.97;10341997;28;20042;-77
2022/12/25 01:12:24;;;;;;;12.15;6.50;;;;;;;-144.32;100.00;68061.97;10346449;28;20042;-78
2022/12/25 01:17:24;;;;;;;11.20;6.53;;;;;;;-144.32;100.00;68061.97;10346174;28;20030;-76
2022/12/25 01:22:26;;;;;;;13.55;6.45;;;;;;;-144.32;100.00;68061.97;10375872;28;20580;-78
2022/12/25 01:27:26;;;;;;;11.30;7.07;;;;;;;-144.32;100.00;68061.97;10345844;28;20107;-79
2022/12/25 01:32:27;;;;;;;11.82;6.32;;;;;;;-144.32;100.00;68061.97;10344356;28;20042;-79
2022/12/25 01:37:28;;;;;;;10.27;6.20;;;;;;;-144.32;100.00;68061.97;10342030;28;20293;-77
2022/12/25 01:42:28;;;;;;;11.35;6.30;;;;;;;-144.32;100.00;68061.97;10353353;28;20049;-76
2022/12/25 01:47:29;;;;;;;13.40;6.43;;;;;;;-144.32;100.00;68061.97;10346927;28;20045;-78
2022/12/25 01:52:30;;;;;;;9.25;5.82;;;;;;;-144.32;100.00;68061.97;10341965;28;20100;-77
2022/12/25 01:57:34;;;;;;;9.90;5.53;;;;;;;-144.32;100.00;68061.97;10350992;28;20578;-76
2022/12/25 02:02:36;;;;;;;9.38;5.47;;;;;;;-144.32;100.00;68061.97;10351767;28;20077;-77
2022/12/25 02:07:40;;;;;;;7.50;6.13;;;;;;;-144.32;100.00;68061.97;10359298;28;20050;-77
2022/12/25 02:12:43;;;;;;;9.90;6.07;;;;;;;-144.32;100.00;68061.97;10350701;28;20050;-76
2022/12/25 02:17:59;;;;;;;6.55;5.47;;;;;;;-144.32;100.00;68061.97;10344429;28;20046;-77
2022/12/25 02:23:28;;;;;;;9.13;5.75;;;;;;;-144.32;100.00;68061.97;10349013;28;20041;-78
2022/12/25 02:28:52;;;;;;;9.23;5.95;;;;;;;-144.32;100.00;68061.97;10353573;28;20120;-78
2022/12/25 02:34:01;;;;;;;7.43;5.45;;;;;;;-144.32;100.00;68061.97;10351927;28;20140;-77
2022/12/25 03:11:30;;;;;;;7.25;4.80;;;;;;;-144.32;100.00;68061.97;10352023;28;20173;-76
2022/12/25 03:16:49;;;;;;;8.27;5.38;;;;;;;-144.32;100.00;68061.97;10347408;28;20047;-75
2022/12/25 03:27:11;;;;;;;6.38;4.30;;;;;;;-144.32;100.00;68061.97;10344078;28;20038;-76
2022/12/25 03:32:57;;;;;;;6.72;4.30;;;;;;;-144.32;100.00;68061.97;10345998;28;20053;-77
2022/12/25 04:37:32;;;;;;;7.53;4.50;;;;;;;-144.32;100.00;68061.97;10367022;28;20143;-76
2022/12/25 04:42:32;;;;;;;7.95;5.38;;;;;;;-144.32;100.00;68061.97;10346850;28;20430;-74
2022/12/25 04:47:33;;;;;;;5.85;4.57;;;;;;;-144.32;100.00;68061.97;10344175;28;20042;-75
2022/12/25 04:52:36;;;;;;;6.93;5.03;;;;;;;-144.32;100.00;68061.97;10347017;28;20057;-75
2022/12/25 04:57:37;;;;;;;9.70;5.32;;;;;;;-144.32;100.00;68061.97;10352916;28;20039;-74
2022/12/25 05:02:37;;;;;;;6.82;4.75;;;;;;;-144.32;100.00;68061.97;10354083;28;20053;-76
2022/12/25 05:07:38;;;;;;;7.55;4.65;;;;;;;-144.32;100.00;68061.97;10342738;28;20049;-75
2022/12/25 05:12:38;;;;;;;8.57;4.95;;;;;;;-144.32;100.00;68061.97;10342401;28;20521;-76
2022/12/25 05:17:39;;;;;;;7.43;4.68;;;;;;;-144.32;100.00;68061.97;10341749;28;20042;-76
2022/12/25 05:22:41;;;;;;;7.03;4.68;;;;;;;-144.32;100.00;68061.97;10346473;28;20049;-78
2022/12/25 05:27:41;;;;;;;7.47;4.93;;;;;;;-144.32;100.00;68061.97;10342365;28;20050;-76
2022/12/25 05:32:42;;;;;;;9.10;4.15;;;;;;;-144.32;100.00;68061.97;10350622;28;20057;-76
2022/12/25 05:37:43;;;;;;;7.05;5.00;;;;;;;-144.32;100.00;68061.97;10355033;28;20050;-76
2022/12/25 05:42:44;;;;;;;6.38;4.60;;;;;;;-144.32;100.00;68061.97;10355698;28;20115;-77
2022/12/25 05:47:44;;;;;;;8.18;5.95;;;;;;;-144.32;100.00;68061.97;10355507;28;20046;-79
2022/12/25 05:52:45;;;;;;;12.40;6.88;;;;;;;-144.32;100.00;68061.97;10352499;28;20053;-77
2022/12/25 05:57:45;;;;;;;8.07;5.60;;;;;;;-144.32;100.00;68061.97;10349369;28;20046;-77
2022/12/25 06:02:46;;;;;;;8.93;5.22;;;;;;;-144.32;100.00;68061.97;10350617;28;20042;-77
2022/12/25 06:07:47;;;;;;;8.90;5.53;;;;;;;-144.32;100.00;68061.97;10356967;28;20049;-76
2022/12/25 06:12:48;;;;;;;6.50;4.60;;;;;;;-144.32;100.00;68061.97;10354570;28;20058;-78
2022/12/25 06:17:48;;;;;;;6.10;4.70;;;;;;;-144.32;100.00;68061.97;10367645;28;20279;-76
2022/12/25 06:22:49;;;;;;;8.45;4.82;;;;;;;-144.32;100.00;68061.97;10343445;28;20061;-78
2022/12/25 06:27:49;;;;;;;6.07;4.93;;;;;;;-144.32;100.00;68061.97;10364950;28;20050;-78
2022/12/25 06:32:50;;;;;;;8.45;4.95;;;;;;;-144.32;100.00;68061.97;10351014;28;20068;-77
2022/12/25 06:37:53;;;;;;;7.60;4.72;;;;;;;-144.32;100.00;68061.97;10350433;28;20533;-76
2022/12/25 06:42:53;;;;;;;9.93;5.85;;;;;;;-144.32;100.00;68061.97;10345819;28;20052;-79
2022/12/25 06:47:54;;;;;;;8.93;5.68;;;;;;;-144.32;100.00;68061.97;10353538;28;20059;-80
2022/12/25 06:52:55;;;;;;;8.48;5.45;;;;;;;-144.32;100.00;68061.97;10349544;28;20189;-77
2022/12/25 06:57:55;;;;;;;7.70;5.15;;;;;;;-144.32;100.00;68061.97;10352855;28;20045;-78
2022/12/25 07:02:56;;;;;;;8.02;5.47;;;;;;;-144.32;100.00;68061.97;10370863;28;20048;-80
2022/12/25 07:07:57;;;;;;;7.13;5.75;;;;;;;-144.32;100.00;68061.97;10363791;28;20047;-79
2022/12/25 07:12:57;;;;;;;9.43;5.78;;;;;;;-144.32;100.00;68061.97;10366073;28;20049;-79
2022/12/25 07:17:58;;;;;;;10.23;6.40;;;;;;;-144.32;100.00;68061.97;10354701;28;20046;-77
2022/12/25 07:22:58;;;;;;;11.52;7.53;;;;;;;-144.32;100.00;68061.97;10366741;28;20169;-79
2022/12/25 07:28:01;;;;;;;10.52;6.70;;;;;;;-144.32;100.00;68061.97;10362549;28;20564;-77
2022/12/25 07:33:01;;;;;;;10.85;6.95;;;;;;;-144.32;100.00;68061.97;10372821;28;20142;-79
2022/12/25 07:38:02;;;;;;;8.50;5.30;;;;;;;-144.32;100.00;68061.97;10376246;28;20048;-79
2022/12/25 07:43:03;;;;;;;8.63;5.05;;;;;;;-144.32;100.00;68061.97;10366634;28;20172;-80
2022/12/25 07:48:04;;;;;;;6.30;4.75;;;;;;;-144.32;100.00;68061.97;10382453;28;20124;-80
2022/12/25 07:53:05;;;;;;;10.88;6.35;;;;;;;-144.32;100.00;68061.97;10397278;28;20071;-78
2022/12/25 07:58:05;;;;;;;7.90;6.30;;;;;;;-144.32;100.00;68061.97;10398169;28;20042;-78
2022/12/25 08:03:05;;;;;;;10.07;6.60;;;;;;;-144.32;100.00;68061.97;10379364;28;20128;-78
2022/12/25 08:08:06;;;;;;;8.05;5.95;;;;;;;-144.32;100.00;68061.97;10386343;28;20042;-77
2022/12/25 08:13:08;;;;;;;7.78;5.20;;;;;;;-144.32;100.00;68061.97;10366543;28;20075;-77
2022/12/25 08:18:08;;;;;;;7.35;5.40;;;;;;;-144.32;100.00;68061.97;10366549;28;20125;-78
2022/12/25 08:23:09;;;;;;;11.48;7.18;;;;;;;-144.32;100.00;68061.97;10372388;28;20049;-78
2022/12/25 08:28:09;;;;;;;12.23;6.00;;;;;;;-144.32;100.00;68061.97;10361936;28;20046;-78
2022/12/25 08:33:10;;;;;;;9.25;6.25;;;;;;;-144.32;100.00;68061.97;10355155;28;20046;-78
2022/12/25 08:38:10;;;;;;;11.13;6.07;;;;;;;-144.32;100.00;68061.97;10342876;28;20071;-80
2022/12/25 08:43:11;;;;;;;7.97;5.45;;;;;;;-144.32;100.00;68061.97;10349818;28;20486;-77
2022/12/25 08:48:12;;;;;;;7.32;5.68;;;;;;;-144.32;100.00;68061.97;10343951;28;20052;-76
2022/12/25 08:53:13;;;;;;;6.85;5.10;;;;;;;-144.32;100.00;68061.97;10347447;28;20511;-77
2022/12/25 08:58:15;;;;;;;9.02;5.53;;;;;;;-144.32;100.00;68061.97;10347676;28;20045;-77
2022/12/25 09:03:16;;;;;;;9.68;5.47;;;;;;;-144.32;100.00;68061.97;10351213;28;20501;-79
2022/12/25 09:08:20;;;;;;;8.82;5.47;;;;;;;-144.32;100.00;68061.97;10345120;28;20132;-77
2022/12/25 09:13:21;;;;;;;9.85;5.20;;;;;;;-144.32;100.00;68061.97;10350701;28;20041;-78
2022/12/25 09:18:21;;;;;;;8.98;4.68;;;;;;;-144.32;100.00;68061.97;10357905;28;20046;-78
2022/12/25 09:23:22;;;;;;;6.93;5.00;;;;;;;-144.32;100.00;68061.97;10356970;28;20037;-79
2022/12/25 09:28:22;;;;;;;6.80;4.60;;;;;;;-144.32;100.00;68061.97;10392024;28;20054;-77
2022/12/25 09:33:23;;;;;;;7.50;4.45;;;;;;;-144.32;100.00;68061.97;10371851;28;20088;-78
2022/12/25 09:38:25;;;;;;;6.13;4.47;;;;;;;-144.32;100.00;68061.97;10351999;28;20100;-78
2022/12/25 09:43:27;;;;;;;5.93;4.20;;;;;;;-144.32;100.00;68061.97;10344616;28;20089;-78
2022/12/25 09:48:32;;;;;;;6.30;4.93;;;;;;;-144.32;100.00;68061.97;10345576;28;20065;-78
2022/12/25 09:53:38;;;;;;;8.20;5.18;;;;;;;-144.32;100.00;68061.97;10347559;28;20074;-77
2022/12/25 09:58:39;;;;;;;7.65;4.30;;;;;;;-144.32;100.00;68061.97;10347230;28;20058;-77
2022/12/25 10:04:01;;;;;;;4.97;4.22;;;;;;;-144.32;100.00;68061.97;10350150;28;20065;-79
2022/12/25 10:09:12;;;;;;;5.07;4.35;;;;;;;-144.32;100.00;68061.97;10337172;28;20038;-79
2022/12/25 10:14:39;;;;;;;5.50;4.25;;;;;;;-144.32;100.00;68061.97;10348459;28;20101;-77
2022/12/25 10:20:08;;;;;;;6.32;3.53;;;;;;;-144.32;100.00;68061.97;10346264;28;20192;-79
2022/12/25 10:25:19;;;;;;;4.57;3.60;;;;;;;-144.32;100.00;68061.97;10344615;28;20042;-77
2022/12/25 10:30:22;;;;;;;4.72;3.30;;;;;;;-144.32;100.00;68061.97;10339031;28;20405;-78
2022/12/25 10:35:26;;;;;;;5.72;2.83;;;;;;;-144.32;100.00;68061.97;10352055;28;20057;-78
2022/12/25 10:40:37;;;;;;;3.53;2.35;;;;;;;-144.32;100.00;68061.97;10355403;28;20097;-79
2022/12/25 10:45:46;;;;;;;2.72;2.42;;;;;;;-144.32;100.00;68061.97;10356366;28;20052;-78
2022/12/25 10:50:47;;;;;;;3.10;2.42;;;;;;;-144.32;100.00;68061.97;10348456;28;20061;-78
2022/12/25 10:56:03;;;;;;;3.13;2.80;;;;;;;-144.32;100.00;68061.97;10343094;28;20045;-81
2022/12/25 11:01:07;;;;;;;2.60;2.33;;;;;;;-144.32;100.00;68061.97;10352750;28;20047;-80
2022/12/25 11:06:24;;;;;;;3.55;2.90;;;;;;;-144.32;100.00;68061.97;10349528;28;20224;-78
2022/12/25 11:11:26;;;;;;;3.15;2.72;;;;;;;-144.32;100.00;68061.97;10345473;28;20057;-77
2022/12/25 11:16:33;;;;;;;4.53;2.70;;;;;;;-144.32;100.00;68061.97;10358170;28;20037;-77
2022/12/25 11:21:36;;;;;;;3.42;2.40;;;;;;;-144.32;100.00;68061.97;10356747;28;20042;-78
2022/12/25 11:26:49;;;;;;;3.08;2.45;;;;;;;-144.32;100.00;68061.97;10350844;28;20109;-79
2022/12/25 11:31:50;;;;;;;3.00;2.33;;;;;;;-144.32;100.00;68061.97;10350947;28;20387;-78
2022/12/25 11:36:52;;;;;;;4.43;2.38;;;;;;;-144.32;100.00;68061.97;10352680;28;20046;-78
2022/12/25 11:42:05;;;;;;;4.60;2.55;;;;;;;-144.32;100.00;68061.97;10352496;28;20477;-78
2022/12/25 11:47:22;;;;;;;2.95;2.25;;;;;;;-144.32;100.00;68061.97;10357348;28;20069;-77
2022/12/25 11:52:28;;;;;;;3.50;2.30;;;;;;;-144.32;100.00;68061.97;10347491;28;20037;-79
2022/12/25 11:57:31;;;;;;;2.85;2.00;;;;;;;-144.32;100.00;68061.97;10343887;28;20050;-78
2022/12/25 12:02:47;;;;;;;4.18;2.17;;;;;;;-144.32;100.00;68061.97;10350400;28;20062;-79
2022/12/25 12:07:56;;;;;;;3.55;2.42;;;;;;;-144.32;100.00;68061.97;10345143;28;20728;-79
2022/12/25 12:12:59;;;;;;;3.03;2.30;;;;;;;-144.32;100.00;68061.97;10349281;28;20101;-78
2022/12/25 12:18:07;;;;;;;;;;;;;;;-144.32;100.00;68061.97;10341476;28;20153;-77
2022/12/25 12:23:15;;;;;;;3.67;2.70;;;;;;;-144.32;100.00;68061.97;10347190;28;20329;-77
2022/12/25 12:28:25;;;;;;;2.40;2.20;;;;;;;-144.32;100.00;68061.97;10346665;28;20046;-77
2022/12/25 12:33:31;;;;;;;4.32;2.60;;;;;;;-144.32;100.00;68061.97;10348379;28;20058;-80
2022/12/25 12:38:33;;;;;;;3.47;2.80;;;;;;;-144.32;100.00;68061.97;10339362;28;20074;-78
2022/12/25 12:43:44;;;;;;;3.70;2.70;;;;;;;-144.32;100.00;68061.97;10342264;28;20041;-78
2022/12/25 12:48:51;;;;;;;4.32;2.83;;;;;;;-144.32;100.00;68061.97;10340155;28;20288;-78
2022/12/25 12:54:05;;;;;;;4.03;2.53;;;;;;;-144.32;100.00;68061.97;10341080;28;20115;-78
2022/12/25 12:59:08;;;;;;;3.30;2.25;;;;;;;-144.32;100.00;68061.97;10344332;28;20048;-78
2022/12/25 13:04:15;;;;;;;3.22;2.13;;;;;;;-144.32;100.00;68061.97;10355757;28;20049;-77
2022/12/25 13:09:46;;;;;;;3.53;2.00;;;;;;;-144.32;100.00;68061.97;10349356;28;20045;-76
2022/12/25 13:14:48;;;;;;;2.83;1.98;;;;;;;-144.32;100.00;68061.97;10356406;28;20044;-79
2022/12/25 13:19:58;;;;;;;2.30;1.90;;;;;;;-144.32;100.00;68061.97;10347918;28;20050;-76
2022/12/25 13:25:01;;;;;;;2.83;2.28;;;;;;;-144.32;100.00;68061.97;10369527;28;20068;-78
2022/12/25 13:30:13;;;;;;;2.40;2.10;;;;;;;-144.32;100.00;68061.97;10353498;28;20058;-80
2022/12/25 13:35:16;;;;;;;2.92;2.20;;;;;;;-144.32;100.00;68061.97;10362719;28;20128;-79
2022/12/25 13:40:26;;;;;;;3.00;2.70;;;;;;;-144.32;100.00;68061.97;10349291;28;20737;-78
2022/12/25 13:45:29;;;;;;;2.58;2.05;;;;;;;-144.32;100.00;68061.97;10352519;28;20037;-77
2022/12/25 13:50:32;;;;;;;2.63;2.35;;;;;;;-144.32;100.00;68061.97;10355381;28;20216;-78
2022/12/25 13:55:33;;;;;;;2.10;1.90;;;;;;;-144.32;100.00;68061.97;10357190;28;20042;-78
2022/12/25 14:00:48;;;;;;;3.28;2.38;;;;;;;-144.32;100.00;68061.97;10352533;28;20701;-78
2022/12/25 14:05:57;;;;;;;1.70;1.52;;;;;;;-144.32;100.00;68061.97;10347439;28;20050;-76
2022/12/25 14:11:03;;;;;;;3.85;2.00;;;;;;;-144.32;100.00;68061.97;10346319;28;20500;-77
2022/12/25 14:16:06;;;;;;;4.78;2.80;;;;;;;-144.32;100.00;68061.97;10359467;28;20093;-79
2022/12/25 14:21:14;;;;;;;4.65;2.05;;;;;;;-144.32;100.00;68061.97;10349908;28;20078;-77
2022/12/25 14:26:25;;;;;;;2.03;1.70;;;;;;;-144.32;100.00;68061.97;10346049;28;20057;-78
2022/12/25 14:31:28;;;;;;;2.72;2.00;;;;;;;-144.32;100.00;68061.97;10350592;28;20125;-77
2022/12/25 14:36:30;;;;;;;2.40;2.05;;;;;;;-144.32;100.00;68061.97;10359494;28;20579;-76
2022/12/25 14:41:40;;;;;;;2.20;2.00;;;;;;;-144.32;100.00;68061.97;10365695;28;20129;-79
2022/12/25 14:46:41;;;;;;;4.25;2.03;;;;;;;-144.32;100.00;68061.97;10394720;28;20050;-78
2022/12/25 14:51:42;;;;;;;3.35;2.20;;;;;;;-144.32;100.00;68061.97;10391912;28;20050;-77
2022/12/25 14:56:47;;;;;;;2.78;2.15;;;;;;;-144.32;100.00;68061.97;10369661;28;20085;-77
2022/12/25 15:01:57;;;;;;;2.65;2.40;;;;;;;-144.32;100.00;68061.97;10364871;28;20069;-78
2022/12/25 15:07:05;;;;;;;3.10;2.40;;;;;;;-144.32;100.00;68061.97;10354585;28;20050;-77
2022/12/25 15:12:06;;;;;;;4.53;3.10;;;;;;;-144.32;100.00;68061.97;10362119;28;20057;-78
2022/12/25 15:17:23;;;;;;;3.95;2.80;;;;;;;-144.32;100.00;68061.97;10369516;28;20104;-78
2022/12/25 15:22:23;;;;;;;3.47;3.10;;;;;;;-144.32;100.00;68061.97;10375840;28;20056;-77
2022/12/25 15:27:24;;;;;;;3.58;2.80;;;;;;;-144.32;100.00;68061.97;10362761;28;20066;-77
2022/12/25 15:32:25;;;;;;;3.30;3.00;;;;;;;-144.32;100.00;68061.97;10358718;28;20046;-77
2022/12/25 15:37:25;;;;;;;3.58;3.28;;;;;;;-144.32;100.00;68061.97;10351845;28;20042;-77
2022/12/25 15:42:26;;;;;;;3.97;3.08;;;;;;;-144.32;100.00;68061.97;10354156;28;20037;-76
2022/12/25 15:47:26;;;;;;;2.65;2.40;;;;;;;-144.32;100.00;68061.97;10342235;28;20129;-78
2022/12/25 15:52:27;;;;;;;4.55;3.10;;;;;;;-144.32;100.00;68061.97;10345803;28;20479;-79
2022/12/25 15:57:27;;;;;;;3.30;2.78;;;;;;;-144.32;100.00;68061.97;10357091;28;20034;-78
2022/12/25 16:02:28;;;;;;;3.88;2.92;;;;;;;-144.32;100.00;68061.97;10364912;28;20099;-78
2022/12/25 16:07:30;;;;;;;3.95;2.88;;;;;;;-144.32;100.00;68061.97;10345843;28;20551;-77
2022/12/25 16:12:31;;;;;;;4.40;3.00;;;;;;;-144.32;100.00;68061.97;10349502;28;20052;-78
2022/12/25 16:17:31;;;;;;;3.85;3.20;;;;;;;-144.32;100.00;68061.97;10345309;28;20053;-78
2022/12/25 16:22:38;;;;;;;3.22;2.92;;;;;;;-144.32;100.00;68061.97;10346009;28;20053;-78
2022/12/25 16:27:39;;;;;;;3.95;3.30;;;;;;;-144.32;100.00;68061.97;10344791;28;20422;-79
2022/12/25 16:32:41;;;;;;;4.50;3.45;;;;;;;-144.32;100.00;68061.97;10339026;28;20052;-78
2022/12/25 16:37:41;;;;;;;5.03;3.80;;;;;;;-144.32;100.00;68061.97;10347552;28;20050;-77
2022/12/25 16:42:42;;;;;;;3.97;3.55;;;;;;;-144.32;100.00;68061.97;10345748;28;20050;-79
2022/12/25 16:47:42;;;;;;;7.05;3.42;;;;;;;-144.32;100.00;68061.97;10348730;28;20125;-78
2022/12/25 16:52:43;;;;;;;5.05;3.17;;;;;;;-144.32;100.00;68061.97;10340720;28;20069;-78
2022/12/25 16:57:46;;;;;;;5.47;3.45;;;;;;;-144.32;100.00;68061.97;10337723;28;20051;-78
2022/12/25 17:02:46;;;;;;;4.70;3.50;;;;;;;-144.32;100.00;68061.97;10341714;28;20096;-78
2022/12/25 17:07:48;;;;;;;5.43;3.58;;;;;;;-144.32;100.00;68061.97;10349156;28;20410;-77
2022/12/25 17:12:48;;;;;;;6.05;3.63;;;;;;;-144.32;100.00;68061.97;10343963;28;20049;-79
2022/12/25 17:17:49;;;;;;;5.43;3.53;;;;;;;-144.32;100.00;68061.97;10340335;28;20137;-78
2022/12/25 17:22:49;;;;;;;6.03;3.63;;;;;;;-144.32;100.00;68061.97;10342492;28;20042;-78
2022/12/25 17:27:50;;;;;;;5.30;3.67;;;;;;;-144.32;100.00;68061.97;10349785;28;20050;-78
2022/12/25 17:32:50;;;;;;;5.30;3.70;;;;;;;-144.32;100.00;68061.97;10355496;28;20620;-78
2022/12/25 17:37:51;;;;;;;4.22;3.42;;;;;;;-144.32;100.00;68061.97;10351827;28;20396;-77
2022/12/25 17:42:52;;;;;;;8.00;3.65;;;;;;;-144.32;100.00;68061.97;10351095;28;20042;-79
2022/12/25 17:47:56;;;;;;;4.88;3.55;;;;;;;-144.32;100.00;68061.97;10357240;28;20069;-79
2022/12/25 17:52:56;;;;;;;4.85;3.55;;;;;;;-144.32;100.00;68061.97;10354332;28;20046;-79
2022/12/25 17:57:57;;;;;;;3.90;3.50;;;;;;;-144.32;100.00;68061.97;10351722;28;20049;-79
2022/12/25 18:02:59;;;;;;;5.43;3.60;;;;;;;-144.32;100.00;68061.97;10353003;28;20050;-77
2022/12/25 18:08:00;;;;;;;4.90;3.85;;;;;;;-144.32;100.00;68061.97;10357134;28;20048;-78
2022/12/25 18:13:00;;;;;;;6.32;3.78;;;;;;;-144.32;100.00;68061.97;10354502;28;20362;-78
2022/12/25 18:18:00;;;;;;;5.32;4.10;;;;;;;-144.32;100.00;68061.97;10353674;28;20086;-77
2022/12/25 18:23:01;;;;;;;4.32;3.70;;;;;;;-144.32;100.00;68061.97;10352959;28;20053;-77
2022/12/25 18:28:02;;;;;;;4.63;3.70;;;;;;;-144.32;100.00;68061.97;10349742;28;20049;-77
2022/12/25 18:33:02;;;;;;;5.97;3.95;;;;;;;-144.32;100.00;68061.97;10356686;28;20045;-77
2022/12/25 18:38:04;;;;;;;4.88;4.13;;;;;;;-144.32;100.00;68061.97;10357948;28;20441;-77
2022/12/25 18:43:05;;;;;;;5.82;4.25;;;;;;;-144.32;100.00;68061.97;10366242;28;20045;-78
2022/12/25 18:48:07;;;;;;;7.00;4.20;;;;;;;-144.32;100.00;68061.97;10353105;28;20050;-78
2022/12/25 18:53:07;;;;;;;6.88;4.78;;;;;;;-144.32;100.00;68061.97;10369138;28;20050;-80
2022/12/25 18:58:09;;;;;;;6.22;4.30;;;;;;;-144.32;100.00;68061.97;10372017;28;20105;-77
2022/12/25 19:03:09;;;;;;;8.00;4.60;;;;;;;-144.32;100.00;68061.97;10381415;28;20037;-76
2022/12/25 19:08:11;;;;;;;9.77;5.25;;;;;;;-144.32;100.00;68061.97;10334048;28;20042;-78
2022/12/25 19:13:12;;;;;;;6.22;5.32;;;;;;;-144.32;100.00;68061.97;10344492;28;20194;-78
2022/12/25 19:18:12;;;;;;;10.57;6.07;;;;;;;-144.32;100.00;68061.97;10350661;28;20467;-78
2022/12/25 19:23:13;;;;;;;8.13;5.55;;;;;;;-144.32;100.00;68061.97;10350513;28;20073;-78
2022/12/25 19:28:16;;;;;;;7.13;5.75;;;;;;;-144.32;100.00;68061.97;10349477;28;20042;-78
2022/12/25 19:33:17;;;;;;;9.15;7.15;;;;;;;-144.32;100.00;68061.97;10347470;28;20053;-77
2022/12/25 19:38:19;;;;;;;8.23;6.85;;;;;;;-144.32;100.00;68061.97;10348115;28;20034;-77
2022/12/25 19:43:20;;;;;;;7.75;6.40;;;;;;;-144.32;100.00;68061.97;10344932;28;20045;-77
2022/12/25 19:48:20;;;;;;;5.82;4.90;;;;;;;-144.32;100.00;68061.97;10352274;28;20041;-77
2022/12/25 19:53:24;;;;;;;7.80;5.45;;;;;;;-144.32;100.00;68061.97;10349329;28;20049;-79
2022/12/25 19:58:24;;;;;;;6.95;5.80;;;;;;;-144.32;100.00;68061.97;10347988;28;20130;-80
2022/12/25 20:03:25;;;;;;;8.30;6.20;;;;;;;-144.32;100.00;68061.97;10351845;28;20049;-76
2022/12/25 20:08:26;;;;;;;8.57;6.30;;;;;;;-144.32;100.00;68061.97;10347883;28;20042;-78
2022/12/25 20:13:27;;;;;;;9.38;6.18;;;;;;;-144.32;100.00;68061.97;10350401;28;20060;-76
2022/12/25 20:18:27;;;;;;;9.82;6.95;;;;;;;-144.32;100.00;68061.97;10345675;28;20049;-76
2022/12/25 20:23:30;;;;;;;10.70;7.75;;;;;;;-144.32;100.00;68061.97;10351181;28;20050;-76
2022/12/25 20:28:32;;;;;;;8.10;6.28;;;;;;;-144.32;100.00;68061.97;10345055;28;20042;-77
2022/12/25 20:33:33;;;;;;;10.25;7.15;;;;;;;-144.32;100.00;68061.97;10354559;28;20438;-77
2022/12/25 20:38:35;;;;;;;8.60;6.18;;;;;;;-144.32;100.00;68061.97;10350459;28;20057;-77
2022/12/25 20:43:36;;;;;;;11.05;6.80;;;;;;;-144.32;100.00;68061.97;10346195;28;20045;-75
2022/12/25 20:48:37;;;;;;;11.32;7.65;;;;;;;-144.32;100.00;68061.97;10352204;28;20485;-77
2022/12/25 20:53:38;;;;;;;10.65;7.28;;;;;;;-144.32;100.00;68061.97;10361359;28;20046;-77
2022/12/25 20:58:39;;;;;;;9.85;7.40;;;;;;;-144.32;100.00;68061.97;10339670;28;20045;-77
2022/12/25 21:03:40;;;;;;;9.65;7.18;;;;;;;-144.32;100.00;68061.97;10343885;28;20045;-76
2022/12/25 21:08:40;;;;;;;10.20;9.05;;;;;;;-144.32;100.00;68061.97;10346881;28;20067;-77
2022/12/25 21:13:44;;;;;;;12.18;9.48;;;;;;;-144.32;100.00;68061.97;10347118;28;20049;-75
2022/12/25 21:18:45;;;;;;;12.93;10.25;;;;;;;-144.32;100.00;68061.97;10348530;28;20046;-77
2022/12/25 21:23:46;;;;;;;11.35;9.90;;;;;;;-144.32;100.00;68061.97;10334891;28;20050;-77
2022/12/25 21:28:50;;;;;;;10.07;8.43;;;;;;;-144.32;100.00;68061.97;10348210;28;20044;-78
2022/12/25 21:33:53;;;;;;;12.95;7.72;;;;;;;-144.32;100.00;68061.97;10346601;28;20088;-79
2022/12/25 21:39:03;;;;;;;11.95;9.05;;;;;;;-144.32;100.00;68061.97;10347896;28;20064;-78
2022/12/25 21:44:03;;;;;;;13.07;9.73;;;;;;;-144.32;100.00;68061.97;10347444;28;20738;-79
2022/12/25 21:49:04;;;;;;;17.40;10.05;;;;;;;-144.32;100.00;68061.97;10324793;28;20153;-76
2022/12/25 21:54:05;;;;;;;12.38;9.55;;;;;;;-144.32;100.00;68061.97;10344533;28;20046;-78
2022/12/25 21:59:07;;;;;;;11.63;8.68;;;;;;;-144.32;100.00;68061.97;10345440;28;20482;-77
2022/12/25 22:04:08;;;;;;;12.20;8.65;;;;;;;-144.32;100.00;68061.97;10341752;28;20066;-77
2022/12/25 22:09:09;;;;;;;10.43;8.10;;;;;;;-144.32;100.00;68061.97;10345746;28;20050;-77
2022/12/25 22:19:41;;;;;;;;;;;;;;;-144.32;100.00;68061.97;10355784;28;20045;-77
2022/12/25 22:24:43;;;;;;;12.38;8.57;;;;;;;-144.32;100.00;68061.97;10349000;28;19925;-77
2022/12/25 22:29:44;;;;;;;8.90;7.53;;;;;;;-144.32;100.00;68061.97;10353580;28;20046;-76
2022/12/25 22:34:44;;;;;;;11.23;8.73;;;;;;;-144.32;100.00;68061.97;10351433;28;20050;-76
2022/12/25 22:39:45;;;;;;;9.80;8.25;;;;;;;-144.32;100.00;68061.97;10353781;28;20085;-75
2022/12/25 22:44:45;;;;;;;12.95;8.95;;;;;;;-144.32;100.00;68061.97;10349651;28;20461;-77
2022/12/25 22:49:46;;;;;;;11.80;8.27;;;;;;;-144.32;100.00;68061.97;10353679;28;20092;-77
2022/12/25 22:54:47;;;;;;;11.43;8.15;;;;;;;-144.32;100.00;68061.97;10343037;28;20042;-76
2022/12/25 22:59:47;;;;;;;11.60;9.00;;;;;;;-144.32;100.00;68061.97;10354662;28;20045;-76
2022/12/25 23:04:48;;;;;;;10.32;8.57;;;;;;;-144.32;100.00;68061.97;10350217;28;20835;-76
2022/12/25 23:09:48;;;;;;;11.70;8.27;;;;;;;-144.32;100.00;68061.97;10348597;28;20112;-77
2022/12/25 23:14:49;;;;;;;9.43;7.80;;;;;;;-144.32;100.00;68061.97;10354884;28;20573;-75
2022/12/25 23:30:32;;;;;;;8.57;7.32;;;;;;;-144.32;100.00;68061.97;10351223;28;20041;-76
2022/12/25 23:35:33;;;;;;;8.18;6.78;;;;;;;-144.32;100.00;68061.97;10348978;28;20049;-75
2022/12/25 23:40:34;;;;;;;10.98;6.70;;;;;;;-144.32;100.00;68061.97;10350990;28;20038;-76
2022/12/25 23:45:35;;;;;;;7.80;6.75;;;;;;;-144.32;100.00;68061.97;10347429;28;20054;-76
2022/12/25 23:50:36;;;;;;;10.40;6.10;;;;;;;-144.32;100.00;68061.97;10351305;28;20061;-77
2022/12/25 23:55:37;;;;;;;7.57;5.93;;;;;;;-144.32;100.00;68061.97;10345894;28;20080;-77
